Advance Mills, Virginia
Current Conditions -  °F | °C
As of 1:53 PM on Tuesday 21 Oct 2014 (Local Time) from KCHO Reporting Station
Broken Clouds Broken Clouds  
Wind Chill: 69°   Ceiling: 9500
Heat Index: 69°   Visibility: 10mi
Dew Point: 46°   Wind: 0mph
Humidity: 44%   Direction: NA
Pressure: 29.81"   Gusts: NA
Location:  38.2469°N, 78.3926°W
Report Text: KCHO 211753Z 00000KT 10SM BKN095 21/08 A2981 RMK AO2 SLP092 T02060078 10206 20111 58020
Loading
Personal Weather Stations






























Interactive Weather Map
Tropical Storm Tracking
New forecast layout! Learn more

10-Day Weather Forecast

Advertisements
Track Severe Weather on mobile